Quincy, Washington
Current Conditions -  °F | °C
As of 9:53 PM on Saturday 22 Nov 2014 (Local Time) from KEPH Reporting Station
Clear Clear  
Wind Chill: 33°   Ceiling: Unl
Heat Index: 37°   Visibility: 10mi
Dew Point: 29°   Wind: 5mph
Humidity: 73%   Direction: 10°N
Pressure: 29.97"   Gusts: NA
Location:  47.23°N, 119.85°W
Report Text: KEPH 230553Z AUTO 01004KT 10SM CLR 03/M02 A2997 RMK AO2 SLP157 T00281017 10078 20028 51032
Loading
Personal Weather Stations






























Interactive Weather Map New forecast layout! Learn more

10-Day Weather Forecast

Advertisements
Track Severe Weather on mobile